Time;durP1;ratioP1;P1;durP2;ratioP2;P2;SDS_P1;SDS_P2;PMS_P1;PMS_P2;Temp;Humidity;BMP_temperature;BMP_pressure;BME280_temperature;BME280_humidity;BME280_pressure;Samples;Min_cycle;Max_cycle;Signal;HPM_P1;HPM_P2
2023/03/15 00:01:58;;;;;;;;;;;;;;;19.30;27.91;99964.79;103575;1310;74505;-80
2023/03/15 00:04:27;;;;;;;;;;;;;;;19.30;27.80;99961.41;103547;1311;61205;-82
2023/03/15 00:06:55;;;;;;;;;;;;;;;19.31;27.83;99961.39;103596;1310;61423;-81
2023/03/15 00:09:27;;;;;;;;;;;;;;;19.31;27.90;99958.02;103577;1311;72093;-81
2023/03/15 00:11:56;;;;;;;;;;;;;;;19.30;27.91;99954.27;103471;1311;61340;-82
2023/03/15 00:14:25;;;;;;;;;;;;;;;19.30;27.89;99955.88;103648;1311;61317;-82
2023/03/15 00:17:00;;;;;;;;;;;;;;;19.30;27.94;99952.70;103596;1311;61342;-82
2023/03/15 00:19:26;;;;;;;;;;;;;;;19.30;27.88;99946.42;103571;1311;73612;-82
2023/03/15 00:21:52;;;;;;;;;;;;;;;19.30;27.90;99940.73;103585;1311;60046;-82
2023/03/15 00:24:17;;;;;;;;;;;;;;;19.30;27.90;99936.82;103576;1311;61336;-82
2023/03/15 00:26:44;;;;;;;;;;;;;;;19.30;27.92;99935.04;103628;1308;59839;-82
2023/03/15 00:29:10;;;;;;;;;;;;;;;19.30;27.92;99932.85;103609;1308;61214;-81
2023/03/15 00:31:35;;;;;;;;;;;;;;;19.30;27.88;99928.98;103685;1311;61417;-81
2023/03/15 00:34:02;;;;;;;;;;;;;;;19.30;27.92;99926.84;103664;1312;59993;-81
2023/03/15 00:36:30;;;;;;;;;;;;;;;19.30;27.88;99920.08;103681;1312;61320;-82
2023/03/15 00:38:56;;;;;;;;;;;;;;;19.29;27.85;99916.36;103864;1308;61306;-80
2023/03/15 00:41:22;;;;;;;;;;;;;;;19.29;27.87;99911.17;103598;1311;61279;-82
2023/03/15 00:43:50;;;;;;;;;;;;;;;19.29;27.98;99907.27;103650;1308;74924;-82
2023/03/15 00:46:27;;;;;;;;;;;;;;;19.29;27.89;99908.35;103648;1309;61432;-82
2023/03/15 00:48:56;;;;;;;;;;;;;;;19.29;27.86;99902.13;103865;1308;61298;-81
2023/03/15 00:51:32;;;;;;;;;;;;;;;19.29;27.87;99894.25;103828;1308;71437;-82
2023/03/15 00:53:58;;;;;;;;;;;;;;;19.29;27.88;99885.91;103842;1308;74465;-81
2023/03/15 00:56:25;;;;;;;;;;;;;;;19.29;27.93;99886.05;103667;1309;61528;-82
2023/03/15 00:58:53;;;;;;;;;;;;;;;19.29;27.76;99883.92;103590;1308;61647;-81
2023/03/15 01:01:24;;;;;;;;;;;;;;;19.29;28.16;99885.00;103604;1308;72760;-83
2023/03/15 01:03:49;;;;;;;;;;;;;;;19.28;27.88;99890.58;103822;1309;75411;-81
2023/03/15 01:06:18;;;;;;;;;;;;;;;19.29;27.97;99888.58;103647;1308;61787;-82
2023/03/15 01:08:47;;;;;;;;;;;;;;;19.28;27.97;99885.93;103681;1308;61229;-81
2023/03/15 01:11:14;;;;;;;;;;;;;;;19.28;28.06;99882.89;103871;1313;73593;-82
2023/03/15 01:13:42;;;;;;;;;;;;;;;19.28;27.89;99886.83;103622;1308;75471;-82
2023/03/15 01:16:09;;;;;;;;;;;;;;;19.28;27.93;99885.92;103672;1309;62273;-82
2023/03/15 01:18:36;;;;;;;;;;;;;;;19.29;28.02;99877.33;103649;1308;61262;-81
2023/03/15 01:21:12;;;;;;;;;;;;;;;19.28;28.03;99877.73;103867;1308;71569;-81
2023/03/15 01:23:37;;;;;;;;;;;;;;;19.28;28.10;99867.94;103848;1313;61301;-82
2023/03/15 01:26:04;;;;;;;;;;;;;;;19.28;28.05;99861.73;103643;1311;61166;-82
2023/03/15 01:28:32;;;;;;;;;;;;;;;19.28;28.02;99857.25;103661;1308;61978;-83
2023/03/15 01:30:58;;;;;;;;;;;;;;;19.28;28.07;99851.50;103848;1308;72537;-82
2023/03/15 01:33:26;;;;;;;;;;;;;;;19.27;28.07;99852.45;103650;1312;61304;-81
2023/03/15 01:36:00;;;;;;;;;;;;;;;19.27;27.96;99850.34;103618;1309;61231;-82
2023/03/15 01:38:28;;;;;;;;;;;;;;;19.28;28.04;99851.02;103632;1308;61279;-82
2023/03/15 01:41:02;;;;;;;;;;;;;;;19.28;28.10;99845.30;103847;1310;72343;-81
2023/03/15 01:43:28;;;;;;;;;;;;;;;19.28;28.00;99841.23;103644;1314;74510;-82
2023/03/15 01:46:05;;;;;;;;;;;;;;;19.27;28.08;99842.48;103856;1308;61354;-81
2023/03/15 01:48:34;;;;;;;;;;;;;;;19.27;28.13;99844.97;103431;1308;61229;-82
2023/03/15 01:51:05;;;;;;;;;;;;;;;19.27;28.09;99841.23;103854;1308;73564;-82
2023/03/15 01:53:36;;;;;;;;;;;;;;;19.27;28.16;99837.69;103832;1309;74513;-83
2023/03/15 01:56:02;;;;;;;;;;;;;;;19.26;28.12;99833.23;103580;1311;61385;-82
2023/03/15 01:58:31;;;;;;;;;;;;;;;19.26;28.09;99832.90;103675;1308;61345;-81
2023/03/15 02:00:56;;;;;;;;;;;;;;;19.27;28.17;99834.64;103806;1308;72536;-82
2023/03/15 02:03:35;;;;;;;;;;;;;;;19.27;28.11;99832.14;103655;1308;74638;-81
2023/03/15 02:06:06;;;;;;;;;;;;;;;19.26;28.17;99828.64;103881;1308;61202;-83
2023/03/15 02:08:36;;;;;;;;;;;;;;;19.26;28.09;99824.87;103819;1308;61253;-82
2023/03/15 02:11:03;;;;;;;;;;;;;;;19.26;28.05;99825.06;103852;1308;72492;-82
2023/03/15 02:13:31;;;;;;;;;;;;;;;19.26;28.22;99822.91;103845;1308;61169;-82
2023/03/15 02:15:57;;;;;;;;;;;;;;;19.26;28.13;99819.02;103867;1309;61285;-83
2023/03/15 02:18:23;;;;;;;;;;;;;;;19.25;28.19;99816.74;103862;1308;61318;-82
2023/03/15 02:21:03;;;;;;;;;;;;;;;19.25;28.05;99815.51;103643;1308;73357;-83
2023/03/15 02:23:30;;;;;;;;;;;;;;;19.25;28.08;99814.98;103821;1313;74500;-82
2023/03/15 02:25:56;;;;;;;;;;;;;;;19.25;28.11;99818.35;103653;1314;61069;-82
2023/03/15 02:28:22;;;;;;;;;;;;;;;19.25;28.04;99810.52;103862;1308;61351;-82
2023/03/15 02:30:48;;;;;;;;;;;;;;;19.25;28.08;99805.89;103657;1314;61293;-82
2023/03/15 02:33:24;;;;;;;;;;;;;;;19.25;28.15;99805.35;103885;1308;61294;-82
2023/03/15 02:35:50;;;;;;;;;;;;;;;19.25;28.10;99806.80;103867;1308;61186;-82
2023/03/15 02:38:16;;;;;;;;;;;;;;;19.25;28.07;99803.79;103648;1308;61320;-82
2023/03/15 02:40:45;;;;;;;;;;;;;;;19.25;28.06;99803.41;103679;1308;73502;-82
2023/03/15 02:43:12;;;;;;;;;;;;;;;19.25;28.14;99804.69;103678;1314;61365;-82
2023/03/15 02:45:41;;;;;;;;;;;;;;;19.24;28.13;99805.06;103872;1308;61193;-81
2023/03/15 02:48:10;;;;;;;;;;;;;;;19.24;28.13;99804.74;103622;1314;61243;-82
2023/03/15 02:50:36;;;;;;;;;;;;;;;19.24;28.12;99807.01;103641;1311;72524;-82
2023/03/15 02:53:04;;;;;;;;;;;;;;;19.24;28.09;99804.02;103653;1309;61313;-82
2023/03/15 02:55:34;;;;;;;;;;;;;;;19.23;28.25;99807.27;103645;1310;61179;-82
2023/03/15 02:58:00;;;;;;;;;;;;;;;19.24;28.18;99807.21;103669;1308;61378;-82
2023/03/15 03:00:28;;;;;;;;;;;;;;;19.24;28.22;99805.07;103678;1308;61378;-82
2023/03/15 03:02:57;;;;;;;;;;;;;;;19.24;28.24;99802.21;103666;1308;74325;-82
2023/03/15 03:05:22;;;;;;;;;;;;;;;19.24;28.08;99795.81;103614;1308;61215;-81
2023/03/15 03:07:49;;;;;;;;;;;;;;;19.24;28.13;99796.13;103885;1309;61303;-81
2023/03/15 03:10:16;;;;;;;;;;;;;;;19.23;28.26;99801.90;103644;1314;61281;-82
2023/03/15 03:12:42;;;;;;;;;;;;;;;19.23;28.20;99804.59;103704;1311;61346;-83
2023/03/15 03:15:09;;;;;;;;;;;;;;;19.23;28.15;99801.92;103655;1308;61203;-82
2023/03/15 03:17:36;;;;;;;;;;;;;;;19.23;28.13;99807.79;103649;1309;61313;-82
2023/03/15 03:20:09;;;;;;;;;;;;;;;19.24;28.18;99811.67;103854;1313;73513;-82
2023/03/15 03:22:48;;;;;;;;;;;;;;;19.24;28.30;99808.66;103832;1309;75795;-83
2023/03/15 03:25:14;;;;;;;;;;;;;;;19.23;28.17;99807.08;103820;1313;61223;-82
2023/03/15 03:27:42;;;;;;;;;;;;;;;19.23;28.33;99806.19;103880;1310;61228;-81
2023/03/15 03:30:10;;;;;;;;;;;;;;;19.23;28.30;99808.69;103885;1308;73505;-83
2023/03/15 03:32:45;;;;;;;;;;;;;;;19.24;28.28;99809.16;103677;1308;74501;-82
2023/03/15 03:35:14;;;;;;;;;;;;;;;19.23;28.27;99807.45;103649;1311;61389;-82
2023/03/15 03:37:40;;;;;;;;;;;;;;;19.24;28.29;99809.70;103660;1309;61362;-82
2023/03/15 03:40:07;;;;;;;;;;;;;;;19.24;28.26;99801.91;103622;1314;61336;-82
2023/03/15 03:42:34;;;;;;;;;;;;;;;19.24;28.31;99802.05;103623;1310;74533;-82
2023/03/15 03:44:59;;;;;;;;;;;;;;;19.24;28.33;99797.03;103674;1309;61274;-82
2023/03/15 03:47:25;;;;;;;;;;;;;;;19.23;28.33;99792.83;103888;1313;61329;-82
2023/03/15 03:49:50;;;;;;;;;;;;;;;19.23;28.28;99789.42;103659;1308;61457;-81
2023/03/15 03:52:21;;;;;;;;;;;;;;;19.24;28.36;99790.64;103645;1314;75506;-81
2023/03/15 03:54:47;;;;;;;;;;;;;;;19.24;28.29;99794.18;103697;1312;61321;-82
2023/03/15 03:57:13;;;;;;;;;;;;;;;19.24;28.22;99808.66;103896;1311;61324;-82
2023/03/15 03:59:38;;;;;;;;;;;;;;;19.23;28.31;99803.92;103652;1314;61159;-82
2023/03/15 04:02:15;;;;;;;;;;;;;;;19.23;28.31;99806.91;103689;1314;75874;-82
2023/03/15 04:04:41;;;;;;;;;;;;;;;19.23;28.48;99800.48;103847;1314;61326;-82
2023/03/15 04:07:15;;;;;;;;;;;;;;;19.24;28.44;99792.23;103895;1314;61284;-82
2023/03/15 04:09:41;;;;;;;;;;;;;;;19.23;28.36;99789.06;103612;1309;72889;-81
2023/03/15 04:12:07;;;;;;;;;;;;;;;19.24;28.36;99791.70;103687;1314;61351;-81
2023/03/15 04:14:36;;;;;;;;;;;;;;;19.23;28.43;99794.83;103641;1314;61272;-82
2023/03/15 04:17:04;;;;;;;;;;;;;;;19.23;28.35;99797.45;103674;1311;61308;-82
2023/03/15 04:19:29;;;;;;;;;;;;;;;19.23;28.44;99794.80;103842;1312;72367;-82
2023/03/15 04:22:07;;;;;;;;;;;;;;;19.23;28.43;99789.62;103684;1309;74618;-82
2023/03/15 04:24:33;;;;;;;;;;;;;;;19.23;28.41;99782.15;103877;1309;61296;-82
2023/03/15 04:27:00;;;;;;;;;;;;;;;19.22;28.47;99781.48;103839;1309;61427;-83
2023/03/15 04:29:26;;;;;;;;;;;;;;;19.23;28.35;99780.71;103682;1311;61486;-82
2023/03/15 04:32:00;;;;;;;;;;;;;;;19.23;28.53;99776.63;103613;1309;61304;-82
2023/03/15 04:34:29;;;;;;;;;;;;;;;19.22;28.57;99774.15;103639;1311;62136;-82
2023/03/15 04:36:57;;;;;;;;;;;;;;;19.23;28.43;99780.91;103657;1309;61227;-82
2023/03/15 04:39:23;;;;;;;;;;;;;;;19.22;28.52;99780.40;103647;1308;61327;-82
2023/03/15 04:41:53;;;;;;;;;;;;;;;19.22;28.56;99783.63;103623;1314;61288;-82
2023/03/15 04:44:19;;;;;;;;;;;;;;;19.21;28.87;99785.73;103605;1309;61191;-82
2023/03/15 04:46:53;;;;;;;;;;;;;;;19.14;28.95;99787.88;103763;1310;61314;-82
2023/03/15 04:49:19;;;;;;;;;;;;;;;19.05;29.09;99785.89;103564;1311;61419;-82
2023/03/15 04:51:45;;;;;;;;;;;;;;;18.99;29.22;99782.64;103799;1313;61327;-82
2023/03/15 04:54:10;;;;;;;;;;;;;;;18.88;29.35;99776.45;103584;1309;61278;-81
2023/03/15 04:56:43;;;;;;;;;;;;;;;18.81;29.35;99774.73;103621;1308;61332;-81
2023/03/15 04:59:10;;;;;;;;;;;;;;;18.74;29.48;99775.04;103454;1308;73032;-82
2023/03/15 05:01:46;;;;;;;;;;;;;;;18.70;29.54;99780.18;103849;1313;74534;-83
2023/03/15 05:04:17;;;;;;;;;;;;;;;18.66;29.63;99781.90;103870;1308;61276;-82
2023/03/15 05:06:43;;;;;;;;;;;;;;;18.64;29.61;99781.73;103861;1308;61693;-82
2023/03/15 05:09:17;;;;;;;;;;;;;;;18.61;29.63;99777.66;103642;1309;72567;-82
2023/03/15 05:11:46;;;;;;;;;;;;;;;18.58;29.71;99775.17;103672;1308;75470;-82
2023/03/15 05:14:28;;;;;;;;;;;;;;;18.55;29.63;99774.91;103677;1308;61297;-82
2023/03/15 05:17:14;;;;;;;;;;;;;;;18.50;29.57;99766.36;103694;1308;61182;-82
2023/03/15 05:19:40;;;;;;;;;;;;;;;18.50;29.59;99768.20;103653;1308;61774;-81
2023/03/15 05:22:09;;;;;;;;;;;;;;;18.49;29.49;99762.95;103633;1309;61167;-83
2023/03/15 05:24:35;;;;;;;;;;;;;;;18.48;29.48;99763.54;103880;1314;61282;-82
2023/03/15 05:27:01;;;;;;;;;;;;;;;18.45;29.49;99764.45;103779;1314;61320;-82
2023/03/15 05:29:26;;;;;;;;;;;;;;;18.42;29.40;99766.98;103833;1309;61339;-82
2023/03/15 05:31:52;;;;;;;;;;;;;;;18.39;29.41;99767.59;103733;1311;61274;-82
2023/03/15 05:34:18;;;;;;;;;;;;;;;18.36;29.34;99766.70;103650;1309;61371;-82
2023/03/15 05:36:44;;;;;;;;;;;;;;;18.34;29.27;99764.90;103639;1308;61167;-82
2023/03/15 05:39:15;;;;;;;;;;;;;;;18.35;29.33;99767.00;103650;1309;61336;-82
2023/03/15 05:41:44;;;;;;;;;;;;;;;18.36;29.34;99769.58;103589;1308;74999;-83
2023/03/15 05:44:09;;;;;;;;;;;;;;;18.36;29.30;99773.14;103530;1308;61345;-80
2023/03/15 05:46:36;;;;;;;;;;;;;;;18.35;29.27;99775.86;103465;1308;61438;-81
2023/03/15 05:49:01;;;;;;;;;;;;;;;18.34;29.32;99776.11;103659;1308;61323;-80
2023/03/15 05:51:27;;;;;;;;;;;;;;;18.34;29.29;99776.16;103176;1314;61896;-81
2023/03/15 05:53:52;;;;;;;;;;;;;;;18.32;29.36;99778.77;103301;1311;61326;-81
2023/03/15 05:56:18;;;;;;;;;;;;;;;18.30;29.35;99777.02;103092;1309;61426;-80
2023/03/15 05:58:43;;;;;;;;;;;;;;;18.26;29.23;99777.86;102861;1311;62357;-81
2023/03/15 06:01:09;;;;;;;;;;;;;;;18.19;29.31;99774.61;102753;1309;59576;-81
2023/03/15 06:03:35;;;;;;;;;;;;;;;18.14;29.44;99775.38;102726;1308;61282;-81
2023/03/15 06:06:02;;;;;;;;;;;;;;;18.02;29.39;99772.48;102711;1308;62619;-81
2023/03/15 06:08:29;;;;;;;;;;;;;;;18.00;29.42;99768.04;102768;1308;61503;-82
2023/03/15 06:10:55;;;;;;;;;;;;;;;18.02;29.51;99769.98;102900;1308;61424;-82
2023/03/15 06:13:21;;;;;;;;;;;;;;;18.05;29.51;99771.38;102907;1309;61440;-81
2023/03/15 06:15:49;;;;;;;;;;;;;;;18.08;29.42;99777.41;102898;1308;61608;-82
2023/03/15 06:18:16;;;;;;;;;;;;;;;18.10;29.54;99772.64;102955;1308;61285;-81
2023/03/15 06:20:42;;;;;;;;;;;;;;;18.12;29.50;99766.58;103052;1311;61327;-81
2023/03/15 06:23:10;;;;;;;;;;;;;;;18.14;29.58;99764.99;103097;1308;74269;-81
2023/03/15 06:25:35;;;;;;;;;;;;;;;18.16;29.60;99761.80;103119;1308;61368;-82
2023/03/15 06:28:01;;;;;;;;;;;;;;;18.19;29.59;99763.05;103003;1308;61555;-82
2023/03/15 06:30:27;;;;;;;;;;;;;;;18.19;29.50;99764.27;103052;1309;61457;-80
2023/03/15 06:32:53;;;;;;;;;;;;;;;18.19;29.64;99763.55;102954;1308;61338;-82
2023/03/15 06:35:20;;;;;;;;;;;;;;;18.20;29.66;99761.34;103101;1308;61298;-82
2023/03/15 06:37:46;;;;;;;;;;;;;;;18.21;29.67;99754.64;102575;1309;61416;-82
2023/03/15 06:40:12;;;;;;;;;;;;;;;18.22;29.63;99754.91;102828;1308;61781;-82
2023/03/15 06:42:38;;;;;;;;;;;;;;;18.24;29.59;99756.60;102881;1308;61313;-82
2023/03/15 06:45:04;;;;;;;;;;;;;;;18.23;29.52;99756.30;102705;1309;61358;-79
2023/03/15 06:47:30;;;;;;;;;;;;;;;18.25;29.52;99755.64;103066;1308;61528;-82
2023/03/15 06:49:56;;;;;;;;;;;;;;;18.27;29.56;99756.38;102695;1308;61410;-82
2023/03/15 06:52:22;;;;;;;;;;;;;;;18.28;29.49;99758.96;102643;1308;61243;-80
2023/03/15 06:54:48;;;;;;;;;;;;;;;18.22;29.46;99769.95;102746;1308;59866;-83
2023/03/15 06:57:13;;;;;;;;;;;;;;;18.14;29.58;99774.30;102827;1309;61441;-81
2023/03/15 06:59:39;;;;;;;;;;;;;;;18.12;29.56;99778.30;102738;1308;61426;-81
2023/03/15 07:02:05;;;;;;;;;;;;;;;18.14;29.75;99780.84;103058;1308;59732;-81
2023/03/15 07:04:31;;;;;;;;;;;;;;;18.17;29.77;99784.23;102257;1312;704651;-81
2023/03/15 07:06:57;;;;;;;;;;;;;;;18.21;29.88;99778.92;102983;1309;61323;-81
2023/03/15 07:09:26;;;;;;;;;;;;;;;18.28;29.93;99777.69;102935;1309;62958;-81
2023/03/15 07:11:51;;;;;;;;;;;;;;;18.31;29.95;99778.49;103098;1308;61281;-81
2023/03/15 07:14:17;;;;;;;;;;;;;;;18.35;30.02;99779.65;103025;1308;61441;-80
2023/03/15 07:16:43;;;;;;;;;;;;;;;18.39;30.02;99781.48;102884;1309;61277;-80
2023/03/15 07:19:10;;;;;;;;;;;;;;;18.45;30.01;99775.86;103071;1309;61422;-82
2023/03/15 07:21:36;;;;;;;;;;;;;;;18.51;30.02;99771.30;102906;1308;61365;-81
2023/03/15 07:24:02;;;;;;;;;;;;;;;18.58;29.92;99767.59;102878;1308;61384;-80
2023/03/15 07:26:27;;;;;;;;;;;;;;;18.63;29.90;99756.83;102812;1311;61532;-80
2023/03/15 07:28:53;;;;;;;;;;;;;;;18.68;29.95;99751.65;103104;1308;61361;-80
2023/03/15 07:31:18;;;;;;;;;;;;;;;18.71;29.95;99744.45;103006;1311;61285;-81
2023/03/15 07:33:45;;;;;;;;;;;;;;;18.73;29.81;99741.97;102956;1308;61333;-80
2023/03/15 07:36:10;;;;;;;;;;;;;;;18.76;29.89;99744.05;102964;1308;61297;-80
2023/03/15 07:38:36;;;;;;;;;;;;;;;18.79;29.90;99741.67;103071;1308;61249;-80
2023/03/15 07:41:03;;;;;;;;;;;;;;;18.83;29.74;99741.74;103058;1308;61416;-81
2023/03/15 07:43:29;;;;;;;;;;;;;;;18.85;29.78;99741.99;102854;1309;61332;-80
2023/03/15 07:45:54;;;;;;;;;;;;;;;18.86;29.92;99736.34;102943;1309;61325;-81
2023/03/15 07:48:20;;;;;;;;;;;;;;;18.87;29.72;99730.94;102823;1309;61451;-80
2023/03/15 07:50:46;;;;;;;;;;;;;;;18.85;29.83;99728.02;103016;1308;61263;-81
2023/03/15 07:53:11;;;;;;;;;;;;;;;18.82;29.85;99721.49;102790;1308;59955;-81
2023/03/15 07:55:37;;;;;;;;;;;;;;;18.50;29.61;99716.85;102842;1311;61481;-81
2023/03/15 07:58:02;;;;;;;;;;;;;;;18.14;29.91;99709.81;102833;1309;61272;-80
2023/03/15 08:00:28;;;;;;;;;;;;;;;18.12;30.37;99713.55;102996;1309;61426;-80
2023/03/15 08:02:54;;;;;;;;;;;;;;;18.19;30.57;99713.71;102723;1314;61419;-81
2023/03/15 08:05:19;;;;;;;;;;;;;;;18.27;30.85;99707.42;102687;1311;61369;-80
2023/03/15 08:07:47;;;;;;;;;;;;;;;18.24;30.84;99696.55;102689;1309;59839;-81
2023/03/15 08:10:12;;;;;;;;;;;;;;;17.97;30.74;99690.75;102806;1309;61157;-80
2023/03/15 08:12:40;;;;;;;;;;;;;;;17.66;31.02;99690.56;102603;1308;61324;-80
2023/03/15 08:15:06;;;;;;;;;;;;;;;17.53;31.21;99696.16;102852;1308;74550;-80
2023/03/15 08:17:55;;;;;;;;;;;;;;;17.49;31.41;99697.29;102996;1308;61410;-80
2023/03/15 08:20:21;;;;;;;;;;;;;;;17.37;31.60;99698.90;102317;1316;61270;-80
2023/03/15 08:22:47;;;;;;;;;;;;;;;17.33;31.73;99694.61;101923;1317;63281;-79
2023/03/15 08:25:15;;;;;;;;;;;;;;;17.33;32.10;99695.84;102223;1317;61387;-80
2023/03/15 08:27:43;;;;;;;;;;;;;;;17.38;32.08;99690.80;103362;1318;60375;-82
2023/03/15 08:30:11;;;;;;;;;;;;;;;17.15;32.07;99691.98;103341;1318;59493;-81
2023/03/15 08:32:37;;;;;;;;;;;;;;;17.25;32.34;99692.84;103582;1316;73692;-82
2023/03/15 08:35:03;;;;;;;;;;;;;;;17.43;32.41;99696.85;103561;1315;75551;-82
2023/03/15 08:37:28;;;;;;;;;;;;;;;17.60;32.23;99696.88;103604;1317;59249;-82
2023/03/15 08:40:01;;;;;;;;;;;;;;;17.76;32.13;99701.41;102713;1317;61342;-81
2023/03/15 08:42:26;;;;;;;;;;;;;;;17.90;32.01;99704.78;102309;1317;74009;-81
2023/03/15 08:44:52;;;;;;;;;;;;;;;18.03;31.95;99704.58;102301;1316;61314;-81
2023/03/15 08:47:18;;;;;;;;;;;;;;;18.15;31.94;99699.58;102353;1317;59452;-80
2023/03/15 08:49:43;;;;;;;;;;;;;;;18.23;31.88;99702.70;102291;1317;61670;-81
2023/03/15 08:52:10;;;;;;;;;;;;;;;18.29;31.72;99707.96;102195;1317;61323;-81
2023/03/15 08:54:35;;;;;;;;;;;;;;;18.31;31.64;99706.73;102198;1316;73731;-84
2023/03/15 08:57:01;;;;;;;;;;;;;;;18.35;31.56;99708.92;102325;1308;61319;-80
2023/03/15 08:59:27;;;;;;;;;;;;;;;18.39;31.57;99709.70;102984;1308;63407;-81
2023/03/15 09:01:52;;;;;;;;;;;;;;;18.32;31.42;99705.23;102865;1308;61512;-80
2023/03/15 09:04:18;;;;;;;;;;;;;;;18.23;31.42;99700.77;102775;1308;64032;-82
2023/03/15 09:06:45;;;;;;;;;;;;;;;18.15;31.48;99695.98;102798;1308;59617;-81
2023/03/15 09:09:11;;;;;;;;;;;;;;;18.07;31.55;99696.46;102738;1308;75637;-80
2023/03/15 09:11:36;;;;;;;;;;;;;;;18.14;31.82;99693.08;102937;1308;59770;-80
2023/03/15 09:14:02;;;;;;;;;;;;;;;18.21;31.83;99694.63;102766;1308;61288;-81
2023/03/15 09:16:28;;;;;;;;;;;;;;;18.26;31.84;99695.15;102751;1308;63485;-80
2023/03/15 09:18:54;;;;;;;;;;;;;;;18.28;31.80;99697.90;102974;1308;61338;-81
2023/03/15 09:21:19;;;;;;;;;;;;;;;18.31;31.77;99693.73;103142;1309;59515;-80
2023/03/15 09:23:46;;;;;;;;;;;;;;;18.31;31.76;99693.56;103370;1308;59881;-80
2023/03/15 09:26:12;;;;;;;;;;;;;;;18.34;31.74;99687.64;103065;1309;61136;-80
2023/03/15 09:28:37;;;;;;;;;;;;;;;18.38;31.75;99685.02;103273;1309;61429;-80
2023/03/15 09:31:05;;;;;;;;;;;;;;;18.41;31.62;99683.70;103307;1308;60251;-81
2023/03/15 09:33:32;;;;;;;;;;;;;;;18.45;31.61;99691.58;103376;1309;60930;-80
2023/03/15 09:35:57;;;;;;;;;;;;;;;18.49;31.63;99686.95;103477;1309;61413;-80
2023/03/15 09:38:24;;;;;;;;;;;;;;;18.51;31.54;99683.59;103131;1308;61314;-80
2023/03/15 09:40:49;;;;;;;;;;;;;;;18.53;31.51;99679.73;103034;1308;61209;-80
2023/03/15 09:43:33;;;;;;;;;;;;;;;18.54;31.48;99684.98;103111;1308;61859;-83
2023/03/15 09:46:02;;;;;;;;;;;;;;;18.54;31.41;99687.17;103156;1308;61416;-82
2023/03/15 09:48:37;;;;;;;;;;;;;;;18.55;31.34;99686.86;103231;1308;72624;-82
2023/03/15 09:51:16;;;;;;;;;;;;;;;18.57;31.47;99684.36;103140;1308;76571;-82
2023/03/15 09:53:52;;;;;;;;;;;;;;;18.61;31.34;99681.10;103079;1308;60934;-82
2023/03/15 09:56:26;;;;;;;;;;;;;;;18.62;31.45;99687.41;103360;1308;61127;-82
2023/03/15 09:58:56;;;;;;;;;;;;;;;18.63;31.36;99694.68;103250;1313;73361;-82
2023/03/15 10:01:24;;;;;;;;;;;;;;;18.62;31.57;99693.68;102677;1308;75580;-82
2023/03/15 10:03:51;;;;;;;;;;;;;;;18.65;31.67;99694.12;102714;1308;61326;-83
2023/03/15 10:06:36;;;;;;;;;;;;;;;18.60;31.71;99691.69;104305;1308;60546;-80
2023/03/15 10:09:03;;;;;;;;;;;;;;;18.48;31.62;99687.98;103103;1317;72601;-80
2023/03/15 10:11:34;;;;;;;;;;;;;;;18.29;31.46;99686.73;102012;1317;61467;-80
2023/03/15 10:14:23;;;;;;;;;;;;;;;17.92;31.45;99680.45;103621;1316;59233;-81
2023/03/15 10:16:49;;;;;;;;;;;;;;;17.85;31.78;99685.57;103116;1323;60260;-81
2023/03/15 10:19:29;;;;;;;;;;;;;;;17.83;31.67;99685.38;102780;1322;72565;-81
2023/03/15 10:21:58;;;;;;;;;;;;;;;17.85;31.90;99683.12;103043;1322;74646;-80
2023/03/15 10:24:43;;;;;;;;;;;;;;;17.80;31.70;99674.98;101745;1322;61493;-82
2023/03/15 10:27:14;;;;;;;;;;;;;;;17.78;31.88;99665.79;102023;1322;61382;-80
2023/03/15 10:29:41;;;;;;;;;;;;;;;17.86;31.84;99662.04;102011;1322;73022;-80
2023/03/15 10:32:10;;;;;;;;;;;;;;;17.91;31.79;99662.87;101982;1322;61444;-81
2023/03/15 10:34:36;;;;;;;;;;;;;;;18.02;31.79;99668.36;101936;1323;61524;-81
2023/03/15 10:37:05;;;;;;;;;;;;;;;18.13;31.82;99662.86;101747;1323;61355;-82
2023/03/15 10:39:30;;;;;;;;;;;;;;;18.24;31.87;99660.56;101792;1323;72800;-80
2023/03/15 10:41:56;;;;;;;;;;;;;;;18.34;31.77;99659.84;101797;1323;61412;-82
2023/03/15 10:44:25;;;;;;;;;;;;;;;18.40;31.67;99652.23;101867;1323;61394;-81
2023/03/15 10:47:08;;;;;;;;;;;;;;;18.46;31.60;99646.46;102136;1317;61324;-81
2023/03/15 10:49:38;;;;;;;;;;;;;;;18.51;31.58;99632.29;102612;1314;72594;-81
2023/03/15 10:52:04;;;;;;;;;;;;;;;18.59;31.73;99631.35;102305;1314;76690;-82
2023/03/15 10:54:30;;;;;;;;;;;;;;;18.52;31.29;99638.08;102857;1308;61358;-81
2023/03/15 10:57:02;;;;;;;;;;;;;;;18.32;31.41;99632.73;103631;1308;61238;-81
2023/03/15 10:59:31;;;;;;;;;;;;;;;18.30;31.62;99633.26;103463;1308;73723;-80
2023/03/15 11:02:26;;;;;;;;;;;;;;;18.26;31.42;99632.13;103046;1308;77164;-81
2023/03/15 11:05:06;;;;;;;;;;;;;;;18.11;31.46;99624.77;102239;1314;61343;-83
2023/03/15 11:07:35;;;;;;;;;;;;;;;18.05;31.44;99619.27;102496;1317;61182;-82
2023/03/15 11:10:01;;;;;;;;;;;;;;;18.09;31.47;99622.75;102066;1314;72081;-80
2023/03/15 11:12:27;;;;;;;;;;;;;;;18.06;31.39;99624.73;102515;1317;61330;-81
2023/03/15 11:14:57;;;;;;;;;;;;;;;17.96;31.47;99621.09;102126;1314;60191;-81
2023/03/15 11:17:25;;;;;;;;;;;;;;;17.93;31.58;99613.08;102099;1317;61485;-81
2023/03/15 11:19:53;;;;;;;;;;;;;;;18.00;31.52;99610.81;101914;1319;73757;-80
2023/03/15 11:22:21;;;;;;;;;;;;;;;18.08;31.68;99608.19;101901;1319;74670;-80
2023/03/15 11:24:48;;;;;;;;;;;;;;;18.12;31.64;99605.48;102051;1320;61504;-80
2023/03/15 11:27:14;;;;;;;;;;;;;;;18.17;31.71;99600.26;101975;1317;62577;-80
2023/03/15 11:29:46;;;;;;;;;;;;;;;18.23;31.65;99601.02;101979;1320;61161;-83
2023/03/15 11:32:14;;;;;;;;;;;;;;;18.29;31.65;99597.73;101823;1317;75544;-83
2023/03/15 11:34:39;;;;;;;;;;;;;;;18.31;31.58;99600.02;102445;1319;63524;-80
2023/03/15 11:37:13;;;;;;;;;;;;;;;18.30;31.37;99598.00;102036;1318;61426;-80
2023/03/15 11:39:51;;;;;;;;;;;;;;;18.28;31.70;99589.92;102016;1317;73547;-80
2023/03/15 11:42:37;;;;;;;;;;;;;;;18.32;31.62;99589.85;102577;1311;73555;-81
2023/03/15 11:45:09;;;;;;;;;;;;;;;18.21;31.38;99582.68;102684;1311;61375;-80
2023/03/15 11:48:04;;;;;;;;;;;;;;;18.21;31.48;99570.19;102741;1313;61456;-81
2023/03/15 11:50:30;;;;;;;;;;;;;;;18.27;31.42;99564.59;102678;1311;72484;-81
2023/03/15 11:53:01;;;;;;;;;;;;;;;18.32;31.33;99565.08;102743;1313;59629;-81
2023/03/15 11:55:27;;;;;;;;;;;;;;;18.36;31.24;99565.10;102249;1311;61416;-80
2023/03/15 11:57:53;;;;;;;;;;;;;;;18.38;31.34;99560.85;102574;1311;61311;-83
2023/03/15 12:00:51;;;;;;;;;;;;;;;18.37;31.15;99556.59;102727;1309;61432;-81
2023/03/15 12:03:33;;;;;;;;;;;;;;;18.20;30.97;99545.89;102083;1317;75506;-81
2023/03/15 12:05:59;;;;;;;;;;;;;;;18.17;31.05;99543.78;102005;1317;61299;-80
2023/03/15 12:08:41;;;;;;;;;;;;;;;18.22;31.20;99545.33;102101;1315;61499;-80
2023/03/15 12:11:12;;;;;;;;;;;;;;;18.14;30.91;99541.31;103512;1315;73166;-80
2023/03/15 12:13:38;;;;;;;;;;;;;;;18.00;30.95;99544.26;103657;1316;74717;-81
2023/03/15 12:16:09;;;;;;;;;;;;;;;17.79;30.79;99545.23;103643;1317;59092;-80
2023/03/15 12:18:40;;;;;;;;;;;;;;;17.78;30.95;99542.34;103617;1320;60113;-81
2023/03/15 12:21:12;;;;;;;;;;;;;;;17.85;30.89;99529.55;103183;1317;73553;-81
2023/03/15 12:23:48;;;;;;;;;;;;;;;17.92;31.02;99524.52;102969;1317;75820;-81
2023/03/15 12:26:33;;;;;;;;;;;;;;;18.01;31.01;99521.69;103820;1317;60063;-82
2023/03/15 12:29:10;;;;;;;;;;;;;;;18.08;30.91;99516.15;103806;1316;60438;-81
2023/03/15 12:32:02;;;;;;;;;;;;;;;18.10;30.97;99508.90;103320;1316;72702;-81
2023/03/15 12:34:38;;;;;;;;;;;;;;;18.19;31.07;99508.04;102827;1317;75731;-81
2023/03/15 12:37:05;;;;;;;;;;;;;;;18.29;31.07;99508.32;102851;1317;61179;-81
2023/03/15 12:39:33;;;;;;;;;;;;;;;18.35;31.04;99505.14;103312;1308;61829;-81
2023/03/15 12:41:59;;;;;;;;;;;;;;;18.39;31.08;99498.40;103591;1314;61342;-80
2023/03/15 12:44:50;;;;;;;;;;;;;;;18.47;31.20;99497.23;103644;1308;61297;-80